Loisir ou Compétition : Rejoignez un Club de la Fédération

Résultats

TROPHEE DU BEAUFORT ETAPE 3

VALLOIRE

FS Dames

Jury de Compétition

Délégué Technique :
REMY PATRICK (SA)
D.T. Adjoint :
 
Dir. Epreuve :
VIENNET ROMUALD (SA)

Caractéristiques de la Piste

Piste :
 
Distance :
2.5 km
Point Haut :
 
Point Bas :
 
Montée Tot. :
 
Montée Max. :
 
Homologation :
 

Pénalité Appliquée :
 
Coefficient :
 

Catégorie :
BEN
Style :
C

05/01/14 - FSAF0031

CltDosClt/CatCodeAnNom PrénomComClubTempsEcartPoints
12141/BENFFS26447192002RICHON CAPUCINESACS LA FECLAZ12:10.100:00.0
22042/BENFFS26653102002MUNIER ELODIESAMONOLITHE SF12:58.900:48.8
32153/BENFFS26704902002ACKERMANN MARIELLESACS LA FECLAZ13:33.401:23.3
42204/BENFFS26653112002VIGNOL MANONSAMONOLITHE SF13:37.901:27.8
52035/BENFFS26489852002MANCINI CHARLOTTESACN REVARD13:50.101:40.0
62186/BENFFS26653012002RAMAZ ADELAIDESABAUGES S.N13:52.901:42.8
72127/BENFFS26653032002MICHELON OCEANESABAUGES S.N13:58.401:48.3
82058/BENFFS26634502002GRISNAUX YSALINESASC MENUIRES13:59.001:48.9
92229/BENFFS26704472002LAFONTAINE THEASABAUGES S.N14:04.101:54.0
1022610/BENFFS26668122002Taffin NinaSASC PEISEY VA14:06.101:56.0
1122911/BENFFS26559032002BERTRAND FANYSASC MERIBEL14:13.402:03.3
1221612/BENFFS26658582002SABATELLI CARLASACS LA FECLAZ14:19.602:09.5
1321013/BENFFS26549632002FANTIN LAURASACN REVARD14:28.102:18.0
1420914/BENFFS26658612002SERAFIN BEAUTE AMANDINESACS LA FECLAZ14:28.402:18.3
1523015/BENFFS26497962002REY CHARLOTTESACOURCHEVEL14:38.502:28.4
1620716/BENFFS26489722002JAUBERTIE PAJOT FIONASASC BOZEL14:40.102:30.0
1722717/BENFFS26500762002BOURGEOIS MARIESACS VAL CENIS14:42.202:32.1
1822118/BENFFS26648912002BELLON MARGAUXSASC BOZEL14:52.502:42.4
1922819/BENFFS26690822002ELOY LILOUSACOURCHEVEL14:53.902:43.8
2020120/BENFFS26705612002MATHE MARCELLINESACS LA FECLAZ15:00.202:50.1
2120621/BENFFS26683752002DUNAND JULIANESASC BOZEL15:00.802:50.7
2220822/BENFFS26661052002VIARD CLOESASC ARECHES15:21.603:11.5
2321323/BENFFS26513102002CONVARD EMILIESACOURCHEVEL15:24.403:14.3
2422324/BENFFS26436802002VIENNET ELISASASC VALLOIRE15:40.003:29.9
2521125/BENFFS26617962002CONSTANT ELISESASC ARECHES15:43.703:33.6
2621926/BENFFS26658542002DECAENS SINGH AMRITASACS LA FECLAZ16:14.104:04.0
2721727/BENFFS26661952002COGERINO AUDREYSACOURCHEVEL16:24.704:14.6
2822528/BENFFS26651702002VERCHERE MARGUERITESASC BOZEL17:20.405:10.3
2920229/BENFFS26500662002GRANIER FANNYSACS VAL CENIS17:34.305:24.2
3022430/BENFFS26641092002DONAZZOLO AGATHESACS KARELLIS19:40.307:30.2